Latest Weather Observations for Woomera

IDS60801

Issued at 8:51 am CST Tuesday 18 June 2024 (issued every 10 minutes, with the page automatically refreshed every 10 minutes)

About weather observations | Map of weather stations | Latest weather observations for SA | Other Formats
Station Details ID: 016001 Name: WOOMERA AERODROME Lat: -31.16 Lon: 136.81 Height: 166.6 m
Data from the previous 72 hours. | See also: Recent months at Woomera
Date/Time
CST
Temp
°C
App
Temp
°C
Dew
Point
°C
Rel
Hum
%
Delta-T
°C
Wind Press
QNH
hPa
Press
MSL
hPa
Rain since
9am
mm
Dir  Spd
km/h
Gust
km/h
Spd
kts
Gust
kts
18/08:30am 11.2 6.3 5.3 67 2.7 NE 20 26 11 14 1017.0 1017.1 0.0
18/08:00am 10.2 5.5 5.0 70 2.4 NE 19 22 10 12 1017.4 1017.4 0.0
18/07:30am 9.9 4.9 4.7 70 2.3 NE 20 26 11 14 1016.8 1016.9 0.0
18/07:00am 9.7 4.6 4.3 69 2.4 ENE 20 22 11 12 1016.9 1017.0 0.0
18/06:30am 10.1 5.0 4.3 67 2.6 NE 20 24 11 13 1016.7 1016.8 0.0
18/06:00am 10.5 4.7 4.4 66 2.7 NE 24 28 13 15 1016.5 1016.6 0.0
18/05:30am 10.6 4.8 4.3 65 2.8 NE 24 28 13 15 1016.6 1016.7 0.0
18/05:00am 10.9 5.5 4.4 64 2.9 NE 22 28 12 15 1016.9 1017.0 0.0
18/04:30am 11.1 5.3 4.6 64 3.0 NE 24 30 13 16 1016.9 1017.0 0.0
18/04:00am 10.8 5.0 4.5 65 2.9 NE 24 30 13 16 1017.0 1017.1 0.0
18/03:30am 10.7 4.9 4.6 66 2.8 NE 24 30 13 16 1017.5 1017.5 0.0
18/03:00am 10.6 5.6 4.7 67 2.7 NE 20 26 11 14 1018.3 1018.3 0.0
18/02:30am 10.5 5.6 4.9 68 2.5 ENE 20 24 11 13 1018.3 1018.3 0.0
18/02:00am 10.7 5.8 5.0 68 2.6 NE 20 24 11 13 1018.5 1018.5 0.0
18/01:30am 10.9 6.0 5.2 68 2.6 NE 20 24 11 13 1018.7 1018.7 0.0
18/01:00am 10.6 6.4 5.6 71 2.3 ENE 17 20 9 11 1018.8 1018.8 0.0
18/12:30am 11.0 6.8 5.5 69 2.5 ENE 17 19 9 10 1018.9 1018.9 0.0
18/12:00am 11.7 7.1 5.8 67 2.8 NE 19 20 10 11 1019.3 1019.4 0.0
 
Date/Time
CST
Temp
°C
App
Temp
°C
Dew
Point
°C
Rel
Hum
%
Delta-T
°C
Wind Press
QNH
hPa
Press
MSL
hPa
Rain since
9am
mm
Dir  Spd
km/h
Gust
km/h
Spd
kts
Gust
kts
17/11:30pm 11.3 7.5 5.6 68 2.7 NE 15 17 8 9 1019.5 1019.6 0.0
17/11:00pm 12.0 7.8 5.9 66 2.9 NE 17 19 9 10 1019.6 1019.7 0.0
17/10:30pm 11.9 7.8 6.0 67 2.8 NE 17 19 9 10 1020.0 1020.1 0.0
17/10:00pm 12.9 9.1 5.8 62 3.4 NNE 15 17 8 9 1020.3 1020.4 0.0
17/09:30pm 13.2 9.0 5.6 60 3.6 NE 17 20 9 11 1020.0 1020.1 0.0
17/09:00pm 13.5 9.6 5.4 58 3.8 NE 15 19 8 10 1020.4 1020.5 0.0
17/08:30pm 13.5 9.2 5.2 57 3.9 NE 17 20 9 11 1020.3 1020.4 0.0
17/08:00pm 13.3 9.0 5.2 58 3.8 NE 17 20 9 11 1020.2 1020.3 0.0
17/07:30pm 13.0 9.4 4.9 58 3.8 NE 13 17 7 9 1020.2 1020.3 0.0
17/07:00pm 13.8 9.1 5.2 56 4.1 NE 19 20 10 11 1019.7 1019.8 0.0
17/06:30pm 13.8 9.8 4.9 55 4.2 NE 15 20 8 11 1019.8 1019.9 0.0
17/06:00pm 14.1 10.1 4.7 53 4.4 NE 15 17 8 9 1019.8 1019.9 0.0
17/05:30pm 15.4 11.8 5.0 50 4.9 NE 13 19 7 10 1019.6 1019.7 0.0
17/05:00pm 16.1 11.8 5.1 48 5.3 NNE 17 20 9 11 1019.5 1019.6 0.0
17/04:30pm 16.2 11.8 4.9 47 5.4 NNE 17 22 9 12 1019.7 1019.8 0.0
17/04:00pm 16.2 11.5 5.2 48 5.3 N 19 26 10 14 1019.9 1020.0 0.0
17/03:30pm 17.0 12.2 5.6 47 5.5 N 20 30 11 16 1019.9 1020.0 0.0
17/03:00pm 16.3 11.6 5.3 48 5.3 N 19 26 10 14 1020.1 1020.2 0.0
17/02:30pm 16.2 11.3 5.2 48 5.3 N 20 28 11 15 1020.2 1020.3 0.0
17/02:00pm 16.2 11.0 5.5 49 5.2 N 22 30 12 16 1020.2 1020.3 0.0
17/01:30pm 15.8 10.5 5.1 49 5.1 N 22 32 12 17 1020.7 1020.8 0.0
17/01:00pm 15.8 9.9 5.7 51 4.9 N 26 35 14 19 1021.1 1021.2 0.0
17/12:30pm 15.9 10.4 5.8 51 4.9 N 24 32 13 17 1021.5 1021.6 0.0
17/12:00pm 14.8 9.2 5.6 54 4.4 N 24 33 13 18 1022.2 1022.3 0.0
17/11:30am 14.5 9.3 5.3 54 4.4 N 22 30 12 16 1022.8 1022.9 0.0
17/11:00am 14.2 9.3 5.3 55 4.2 N 20 28 11 15 1023.1 1023.2 0.0
17/10:30am 12.8 7.5 5.0 59 3.6 N 22 32 12 17 1023.4 1023.5 0.0
17/10:00am 12.9 7.3 5.3 60 3.6 N 24 30 13 16 1023.5 1023.6 0.0
17/09:30am 11.7 6.5 5.3 65 3.0 NNE 22 26 12 14 1023.2 1023.3 0.0
17/09:00am 10.2 5.9 5.2 71 2.3 NNE 17 20 9 11 1023.4 1023.5 0.2
17/08:30am 8.6 5.5 5.4 80 1.4 NNE 11 15 6 8 1023.7 1023.7 0.2
17/08:00am 7.0 3.8 5.0 87 0.9 NE 11 13 6 7 1023.2 1023.3 0.2
17/07:30am 6.0 2.3 4.3 89 0.7 NE 13 15 7 8 1022.8 1022.9 0.2
17/07:00am 5.5 2.0 3.7 88 0.8 ENE 11 13 6 7 1023.1 1023.2 0.2
17/06:30am 5.7 1.9 3.9 88 0.8 ENE 13 15 7 8 1022.6 1022.7 0.2
17/06:00am 6.1 2.3 4.1 87 0.9 ENE 13 17 7 9 1022.3 1022.4 0.2
17/05:30am 5.9 2.5 3.9 87 0.9 ENE 11 13 6 7 1022.5 1022.6 0.2
17/05:00am 5.7 1.8 3.5 86 0.9 ENE 13 13 7 7 1022.5 1022.6 0.2
17/04:30am 5.8 2.3 3.5 85 1.0 ENE 11 13 6 7 1022.5 1022.6 0.2
17/04:00am 6.3 2.2 4.3 87 0.9 ENE 15 15 8 8 1022.5 1022.6 0.2
17/03:30am 5.8 1.5 3.5 85 1.0 ENE 15 15 8 8 1022.6 1022.7 0.2
17/03:00am 5.8 2.3 3.5 85 1.0 ENE 11 13 6 7 1022.9 1023.0 0.2
17/02:30am 6.8 3.4 3.9 82 1.2 E 11 13 6 7 1022.9 1023.0 0.2
17/02:00am 7.6 4.3 4.6 81 1.3 ENE 11 13 6 7 1023.2 1023.3 0.2
17/01:30am 7.8 4.5 4.4 79 1.5 ENE 11 11 6 6 1023.4 1023.5 0.2
17/01:00am 7.5 4.5 4.3 80 1.4 ENE 9 11 5 6 1023.5 1023.6 0.2
17/12:30am 8.0 4.3 4.6 79 1.5 E 13 13 7 7 1023.4 1023.5 0.2
17/12:00am 7.6 3.9 4.2 79 1.5 E 13 13 7 7 1023.5 1023.6 0.2
 
Date/Time
CST
Temp
°C
App
Temp
°C
Dew
Point
°C
Rel
Hum
%
Delta-T
°C
Wind Press
QNH
hPa
Press
MSL
hPa
Rain since
9am
mm
Dir  Spd
km/h
Gust
km/h
Spd
kts
Gust
kts
16/11:30pm 8.4 4.7 4.4 76 1.8 E 13 13 7 7 1024.0 1024.0 0.2
16/11:00pm 9.2 5.2 4.8 74 2.0 E 15 19 8 10 1024.0 1024.0 0.2
16/10:30pm 9.0 4.9 4.6 74 2.0 ESE 15 17 8 9 1024.0 1024.0 0.2
16/10:00pm 9.4 5.4 4.8 73 2.1 E 15 17 8 9 1024.2 1024.2 0.2
16/09:30pm 9.9 5.9 4.7 70 2.3 E 15 17 8 9 1024.3 1024.3 0.2
16/09:00pm 10.7 6.3 5.0 68 2.6 E 17 20 9 11 1024.0 1024.0 0.2
16/08:30pm 10.8 7.2 4.9 67 2.7 ESE 13 15 7 8 1024.1 1024.1 0.2
16/08:00pm 11.4 8.2 5.1 65 2.9 ENE 11 15 6 8 1024.0 1024.0 0.2
16/07:30pm 12.1 8.9 5.0 62 3.3 SE 11 13 6 7 1023.8 1023.8 0.2
16/07:00pm 12.6 9.4 5.1 60 3.5 SE 11 11 6 6 1023.5 1023.6 0.2
16/06:30pm 12.8 9.6 5.2 60 3.5 SE 11 11 6 6 1023.2 1023.3 0.2
16/06:00pm 13.2 9.6 5.1 58 3.8 SE 13 13 7 7 1022.9 1023.0 0.2
16/05:30pm 14.3 11.2 5.4 55 4.2 SE 11 13 6 7 1022.8 1022.9 0.2
16/05:00pm 15.5 12.8 5.4 51 4.8 SE 9 11 5 6 1022.6 1022.7 0.2
16/04:30pm 15.9 13.7 5.2 49 5.1 SSE 6 9 3 5 1022.3 1022.4 0.2
16/04:00pm 16.3 14.2 5.6 49 5.2 ESE 6 11 3 6 1022.1 1022.2 0.2
16/03:30pm 16.1 13.4 5.4 49 5.1 E 9 17 5 9 1021.6 1021.7 0.2
16/03:00pm 16.0 12.9 5.6 50 5.0 ESE 11 20 6 11 1021.6 1021.7 0.2
16/02:30pm 15.5 12.8 5.7 52 4.7 ESE 9 15 5 8 1021.9 1022.0 0.2
16/02:00pm 14.9 11.4 5.4 53 4.5 ESE 13 17 7 9 1021.9 1022.0 0.2
16/01:30pm 14.5 11.1 5.8 56 4.2 SE 13 19 7 10 1022.2 1022.3 0.2
16/01:00pm 14.2 10.8 5.8 57 4.0 SE 13 17 7 9 1022.9 1023.0 0.2
16/12:30pm 14.9 12.0 6.5 57 4.1 SE 11 17 6 9 1023.4 1023.5 0.0
16/12:00pm 13.3 9.9 5.7 60 3.6 SSE 13 20 7 11 1023.5 1023.6 0.0
16/11:30am 13.4 8.8 6.3 62 3.4 ESE 20 26 11 14 1023.5 1023.6 0.0
16/11:00am 13.3 8.6 6.2 62 3.4 ESE 20 28 11 15 1023.5 1023.6 0.0
16/10:30am 12.9 8.4 6.9 67 2.9 ESE 20 26 11 14 1024.1 1024.1 0.0
16/10:00am 11.7 7.3 6.6 71 2.4 ESE 19 24 10 13 1024.5 1024.6 0.0
16/09:30am 10.9 7.4 7.0 77 1.9 SE 15 19 8 10 1024.5 1024.6 0.0
16/09:00am 10.2 7.5 7.3 82 1.4 SSE 11 15 6 8 1024.3 1024.3 0.0
16/08:30am 7.9 5.0 6.7 92 0.6 SSW 11 15 6 8 1024.0 1024.0 0.0
16/08:00am 6.3 3.2 5.7 96 0.3 SSW 11 13 6 7 1024.0 1024.0 0.0
16/07:30am 4.9 1.9 4.3 96 0.3 SSW 9 11 5 6 1023.7 1023.7 0.0
16/07:00am 5.2 2.3 4.5 95 0.3 SW 9 11 5 6 1023.0 1023.1 0.0
16/06:30am 5.9 2.7 5.0 94 0.4 SSW 11 13 6 7 1022.7 1022.8 0.0
16/06:00am 6.5 3.0 5.6 94 0.4 SSE 13 15 7 8 1022.1 1022.2 0.0
16/05:30am 6.3 2.8 5.4 94 0.4 S 13 17 7 9 1021.8 1021.9 0.0
16/05:00am 6.6 3.2 5.7 94 0.4 SSE 13 15 7 8 1021.4 1021.5 0.0
16/04:30am 6.6 3.2 5.7 94 0.4 SSW 13 15 7 8 1021.7 1021.8 0.0
16/04:00am 6.0 2.4 4.8 92 0.5 SSW 13 15 7 8 1021.9 1022.0 0.0
16/03:30am 6.3 2.8 5.3 93 0.4 SSW 13 15 7 8 1022.2 1022.3 0.0
16/03:00am 5.8 2.1 4.3 90 0.6 SW 13 15 7 8 1022.4 1022.5 0.0
16/02:30am 6.3 3.5 5.1 92 0.5 SSW 9 11 5 6 1021.7 1021.8 0.0
16/02:00am 6.2 2.5 4.5 89 0.7 SSW 13 15 7 8 1022.0 1022.1 0.0
16/01:30am 6.4 3.1 4.4 87 0.9 SSW 11 13 6 7 1021.4 1021.5 0.0
16/01:00am 7.6 4.4 4.9 83 1.2 SSE 11 13 6 7 1021.2 1021.3 0.0
16/12:30am 7.8 4.6 5.1 83 1.2 S 11 13 6 7 1021.4 1021.5 0.0
16/12:00am 7.9 5.0 4.5 79 1.5 SSW 9 13 5 7 1021.6 1021.7 0.0
 
Date/Time
CST
Temp
°C
App
Temp
°C
Dew
Point
°C
Rel
Hum
%
Delta-T
°C
Wind Press
QNH
hPa
Press
MSL
hPa
Rain since
9am
mm
Dir  Spd
km/h
Gust
km/h
Spd
kts
Gust
kts
15/11:30pm 9.5 6.0 5.3 75 1.9 SSE 13 17 7 9 1021.4 1021.5 0.0
15/11:00pm 10.3 6.5 5.7 73 2.1 SE 15 19 8 10 1021.6 1021.7 0.0
15/10:30pm 10.6 6.8 5.6 71 2.3 SE 15 20 8 11 1021.5 1021.6 0.0
15/10:00pm 11.1 6.5 5.6 69 2.6 SE 19 22 10 12 1021.4 1021.5 0.0
15/09:30pm 10.8 7.0 5.8 71 2.3 SE 15 17 8 9 1021.4 1021.5 0.0
15/09:00pm 11.2 7.7 5.5 68 2.6 SE 13 15 7 8 1021.6 1021.7 0.0
15/08:30pm 12.0 7.8 5.6 65 3.0 SE 17 20 9 11 1021.8 1021.9 0.0
15/08:00pm 12.8 8.6 5.5 61 3.4 SSE 17 20 9 11 1021.5 1021.6 0.0
15/07:30pm 12.7 8.8 5.4 61 3.4 SSE 15 17 8 9 1021.2 1021.3 0.0
15/07:00pm 13.1 9.6 5.3 59 3.7 S 13 15 7 8 1021.1 1021.2 0.0
15/06:30pm 14.0 10.1 5.4 56 4.1 S 15 19 8 10 1021.1 1021.2 0.0
15/06:00pm 14.9 10.3 5.4 53 4.5 S 19 24 10 13 1020.9 1021.0 0.0
15/05:30pm 15.0 10.1 5.2 52 4.7 S 20 26 11 14 1020.5 1020.6 0.0
15/05:00pm 15.5 10.0 5.7 52 4.7 S 24 30 13 16 1020.3 1020.4 0.0
15/04:30pm 16.0 10.4 5.6 50 5.0 S 24 32 13 17 1020.3 1020.4 0.0
15/04:00pm 16.1 10.2 5.7 50 5.0 SSW 26 37 14 20 1020.1 1020.2 0.0
15/03:30pm 16.0 10.5 5.9 51 4.9 SSW 24 32 13 17 1020.5 1020.6 0.0
15/03:00pm 16.5 11.4 6.1 50 5.1 SSW 22 30 12 16 1020.1 1020.2 0.0
15/02:30pm 16.0 11.0 6.4 53 4.7 SSW 22 32 12 17 1020.0 1020.1 0.0
15/02:00pm 16.4 11.5 6.8 53 4.8 SSW 22 30 12 16 1020.1 1020.2 0.0
15/01:30pm 15.3 10.9 7.3 59 4.0 SSW 20 30 11 16 1020.5 1020.6 0.0
15/01:00pm 15.2 10.4 7.3 59 3.9 SSW 22 33 12 18 1020.4 1020.5 0.0
15/12:30pm 15.0 10.2 7.3 60 3.8 SSE 22 32 12 17 1020.8 1020.9 0.0
15/12:00pm 14.1 9.7 7.4 64 3.3 S 20 26 11 14 1021.3 1021.4 0.0
15/11:30am 13.9 9.2 7.9 67 3.0 S 22 30 12 16 1022.1 1022.2 0.0
15/11:00am 13.2 8.2 7.9 70 2.6 S 24 32 13 17 1021.6 1021.7 0.0
15/10:30am 12.7 8.1 8.2 74 2.2 SSE 22 32 12 17 1022.2 1022.3 0.0
15/10:00am 12.6 8.0 8.3 75 2.1 S 22 30 12 16 1022.2 1022.3 0.0
15/09:30am 12.5 7.2 8.4 76 2.0 S 26 33 14 18 1021.8 1021.9 0.0
15/09:00am 12.0 7.7 9.2 83 1.4 S 22 30 12 16 1021.1 1021.2 0.0

Other formats

Comma delimited format used in spreadsheet applications
http://www.bom.gov.au/fwo/IDS60801/IDS60801.94659.axf

JavaScript Object Notation format (JSON) in row-major order
http://www.bom.gov.au/fwo/IDS60801/IDS60801.94659.json

Data quality

Most of these data are generated automatically and are frequently updated. Quality checks on data are not normally performed. It is possible for incorrect values to appear. Refer to information at About Latest Weather Observations and please check the disclaimer before using these data.